createdAt,value
2022-11-28T00:00:06.924Z,100970.25
2022-11-28T00:02:39.179Z,100966.03
2022-11-28T00:05:06.077Z,100966.88
2022-11-28T00:07:32.693Z,100965.78
2022-11-28T00:09:59.541Z,100960.56
2022-11-28T00:12:26.244Z,100961.56
2022-11-28T00:14:52.704Z,100955.72
2022-11-28T00:17:19.150Z,100953.22
2022-11-28T00:19:45.674Z,100950.91
2022-11-28T00:22:12.223Z,100958.63
2022-11-28T00:24:40.780Z,100958.63
2022-11-28T00:27:07.555Z,100950.84
2022-11-28T00:29:36.166Z,100945.78
2022-11-28T00:32:03.475Z,100939.97
2022-11-28T00:34:30.115Z,100943.75
2022-11-28T00:36:56.767Z,100940.41
2022-11-28T00:39:23.240Z,100943.31
2022-11-28T00:41:49.739Z,100948.31
2022-11-28T00:44:16.255Z,100943.72
2022-11-28T00:46:43.506Z,100948.09
2022-11-28T00:49:09.972Z,100941.59
2022-11-28T00:51:36.943Z,100938.66
2022-11-28T00:54:05.674Z,100932.19
2022-11-28T00:56:37.905Z,100924.84
2022-11-28T00:59:04.993Z,100929.84
2022-11-28T01:01:35.317Z,100936.50
2022-11-28T01:04:05.271Z,100920.19
2022-11-28T01:06:38.607Z,100927.72
2022-11-28T01:09:11.060Z,100926.47
2022-11-28T01:11:39.673Z,100917.88
2022-11-28T01:14:06.941Z,100918.91
2022-11-28T01:16:33.527Z,100928.56
2022-11-28T01:19:00.162Z,100911.84
2022-11-28T01:21:27.175Z,100921.03
2022-11-28T01:23:53.667Z,100918.69
2022-11-28T01:26:23.687Z,100930.00
2022-11-28T01:28:50.566Z,100921.81
2022-11-28T01:31:19.776Z,100936.44
2022-11-28T01:33:46.743Z,100924.34
2022-11-28T01:36:14.220Z,100926.41
2022-11-28T01:38:42.514Z,100925.19
2022-11-28T01:41:09.534Z,100931.06
2022-11-28T01:43:37.048Z,100933.78
2022-11-28T01:46:05.054Z,100936.31
2022-11-28T01:48:38.245Z,100934.91
2022-11-28T01:51:08.805Z,100932.38
2022-11-28T01:53:39.799Z,100929.06
2022-11-28T01:56:12.698Z,100916.78
2022-11-28T01:58:42.913Z,100927.84
2022-11-28T02:01:10.567Z,100925.72
2022-11-28T02:03:47.996Z,100924.44
2022-11-28T02:06:17.566Z,100929.47
2022-11-28T02:08:44.165Z,100916.28
2022-11-28T02:11:38.845Z,100919.22
2022-11-28T02:14:23.613Z,100919.84
2022-11-28T02:17:01.232Z,100908.56
2022-11-28T02:19:42.636Z,100912.13
2022-11-28T02:22:47.624Z,100915.88
2022-11-28T02:26:03.374Z,100915.88
2022-11-28T02:28:41.531Z,100905.47
2022-11-28T02:31:16.874Z,100902.75
2022-11-28T02:33:51.150Z,100902.16
2022-11-28T02:36:50.183Z,100892.09
2022-11-28T02:39:55.082Z,100906.50
2022-11-28T02:42:31.321Z,100909.47
2022-11-28T02:45:23.549Z,100900.91
2022-11-28T02:48:02.778Z,100902.91
2022-11-28T02:50:42.171Z,100904.22
2022-11-28T02:53:20.084Z,100904.03
2022-11-28T02:55:47.506Z,100891.09
2022-11-28T02:58:14.020Z,100896.06
2022-11-28T03:00:45.639Z,100885.66
2022-11-28T03:03:46.215Z,100895.25
2022-11-28T03:06:27.427Z,100881.25
2022-11-28T03:09:22.094Z,100888.97
2022-11-28T03:12:15.969Z,100883.97
2022-11-28T03:14:54.123Z,100881.50
2022-11-28T03:17:43.094Z,100881.13
2022-11-28T03:20:14.455Z,100885.88
2022-11-28T03:22:52.691Z,100888.81
2022-11-28T03:25:28.766Z,100880.66
2022-11-28T03:28:11.210Z,100894.00
2022-11-28T03:30:48.188Z,100883.38
2022-11-28T03:33:17.735Z,100884.22
2022-11-28T03:35:49.816Z,100892.38
2022-11-28T03:38:22.158Z,100880.66
2022-11-28T03:40:53.792Z,100889.88
2022-11-28T03:43:28.349Z,100874.00
2022-11-28T03:46:01.645Z,100881.72
2022-11-28T03:48:32.418Z,100875.22
2022-11-28T03:51:05.525Z,100880.28
2022-11-28T03:53:42.442Z,100876.28
2022-11-28T03:56:17.574Z,100882.31
2022-11-28T03:59:04.124Z,100884.22
2022-11-28T04:01:33.959Z,100886.09
2022-11-28T04:04:21.485Z,100889.88
2022-11-28T04:07:22.267Z,100889.41
2022-11-28T04:09:59.325Z,100874.59
2022-11-28T04:12:50.934Z,100885.66
2022-11-28T04:15:41.432Z,100887.31
2022-11-28T04:18:20.006Z,100894.84
2022-11-28T04:21:01.359Z,100887.75
2022-11-28T04:23:30.313Z,100883.13
2022-11-28T04:26:06.900Z,100869.00
2022-11-28T04:28:34.674Z,100886.69
2022-11-28T04:31:04.351Z,100889.88
2022-11-28T04:33:35.924Z,100882.09
2022-11-28T04:36:05.169Z,100893.19
2022-11-28T04:38:33.375Z,100887.16
2022-11-28T04:41:07.821Z,100888.38
2022-11-28T04:43:39.878Z,100886.09
2022-11-28T04:46:17.625Z,100885.66
2022-11-28T04:48:44.555Z,100885.66
2022-11-28T04:51:20.803Z,100888.16
2022-11-28T04:54:01.872Z,100885.44
2022-11-28T04:56:38.878Z,100880.00
2022-11-28T04:59:07.453Z,100888.38
2022-11-28T05:01:35.395Z,100884.81
2022-11-28T05:04:02.586Z,100883.78
2022-11-28T05:06:35.066Z,100888.97
2022-11-28T05:09:01.827Z,100885.66
2022-11-28T05:11:28.425Z,100882.94
2022-11-28T05:13:55.025Z,100889.81
2022-11-28T05:16:22.675Z,100899.84
2022-11-28T05:18:49.566Z,100897.75
2022-11-28T05:21:16.020Z,100890.63
2022-11-28T05:23:44.398Z,100896.91
2022-11-28T05:26:19.271Z,100891.28
2022-11-28T05:28:48.145Z,100908.84
2022-11-28T05:31:15.497Z,100892.31
2022-11-28T05:33:42.121Z,100904.03
2022-11-28T05:36:13.235Z,100904.03
2022-11-28T05:38:40.647Z,100900.03
2022-11-28T05:41:07.243Z,100904.88
2022-11-28T05:43:34.141Z,100904.88
2022-11-28T05:46:00.746Z,100904.88
2022-11-28T05:48:27.236Z,100899.41
2022-11-28T05:50:53.764Z,100908.19
2022-11-28T05:53:20.438Z,100911.94
2022-11-28T05:55:47.489Z,100910.91
2022-11-28T05:58:14.518Z,100907.34
2022-11-28T06:00:41.067Z,100901.91
2022-11-28T06:03:07.762Z,100902.97
2022-11-28T06:05:42.593Z,100903.38
2022-11-28T06:08:11.940Z,100901.91
2022-11-28T06:10:38.568Z,100892.50
2022-11-28T06:13:05.468Z,100904.41
2022-11-28T06:15:37.600Z,100905.25
2022-11-28T06:18:04.652Z,100902.75
2022-11-28T06:20:31.127Z,100909.41
2022-11-28T06:22:57.727Z,100907.72
2022-11-28T06:25:24.509Z,100903.13
2022-11-28T06:27:51.020Z,100903.38
2022-11-28T06:30:17.556Z,100909.00
2022-11-28T06:32:44.042Z,100913.16
2022-11-28T06:35:10.622Z,100919.44
2022-11-28T06:37:37.294Z,100914.25
2022-11-28T06:40:04.872Z,100917.78
2022-11-28T06:42:31.399Z,100921.94
2022-11-28T06:44:57.898Z,100920.28
2022-11-28T06:47:24.370Z,100926.34
2022-11-28T06:49:50.841Z,100915.75
2022-11-28T06:52:17.362Z,100921.13
2022-11-28T06:54:44.547Z,100915.28
2022-11-28T06:57:11.341Z,100914.84
2022-11-28T06:59:37.930Z,100914.84
2022-11-28T07:02:07.754Z,100913.63
2022-11-28T07:04:34.354Z,100922.16
2022-11-28T07:07:00.891Z,100919.00
2022-11-28T07:09:27.490Z,100921.31
2022-11-28T07:11:53.997Z,100918.19
2022-11-28T07:14:20.523Z,100919.22
2022-11-28T07:16:49.019Z,100921.94
2022-11-28T07:19:15.914Z,100931.16
2022-11-28T07:21:42.428Z,100929.88
2022-11-28T07:24:08.943Z,100935.09
2022-11-28T07:26:37.780Z,100937.81
2022-11-28T07:29:06.781Z,100941.16
2022-11-28T07:31:33.724Z,100938.88
2022-11-28T07:34:02.246Z,100943.25
2022-11-28T07:36:30.247Z,100940.53
2022-11-28T07:38:59.417Z,100936.97
2022-11-28T07:41:27.328Z,100946.59
2022-11-28T07:43:56.503Z,100946.59
2022-11-28T07:46:24.237Z,100955.56
2022-11-28T07:48:51.065Z,100950.97
2022-11-28T07:51:23.295Z,100959.13
2022-11-28T07:53:49.963Z,100953.09
2022-11-28T07:56:20.454Z,100959.38
2022-11-28T07:58:47.952Z,100953.69
2022-11-28T08:01:23.379Z,100965.41
2022-11-28T08:03:50.886Z,100963.72
2022-11-28T08:06:19.862Z,100973.94
2022-11-28T08:08:47.225Z,100970.84
2022-11-28T08:11:15.779Z,100975.00
2022-11-28T08:13:42.685Z,100964.56
2022-11-28T08:16:13.969Z,100976.06
2022-11-28T08:18:41.278Z,100978.16
2022-11-28T08:21:28.887Z,100984.63
2022-11-28T08:23:58.276Z,100978.16
2022-11-28T08:26:30.349Z,100982.50
2022-11-28T08:28:58.015Z,100973.50
2022-11-28T08:31:28.143Z,100976.91
2022-11-28T08:33:56.396Z,100974.34
2022-11-28T08:36:23.091Z,100976.22
2022-11-28T08:39:03.567Z,100977.91
2022-11-28T08:41:36.574Z,100980.63
2022-11-28T08:44:03.144Z,100985.41
2022-11-28T08:46:29.749Z,100984.78
2022-11-28T08:48:56.347Z,100984.56
2022-11-28T08:51:23.947Z,100984.38
2022-11-28T08:53:54.929Z,100988.34
2022-11-28T08:56:24.561Z,100977.25
2022-11-28T08:58:51.101Z,100978.69
2022-11-28T09:01:21.028Z,100986.25
2022-11-28T09:03:48.162Z,100981.84
2022-11-28T09:06:16.316Z,100981.41
2022-11-28T09:08:43.603Z,100986.44
2022-11-28T09:11:12.041Z,100987.84
2022-11-28T09:13:39.049Z,100979.91
2022-11-28T09:16:06.325Z,100975.31
2022-11-28T09:18:32.892Z,100992.00
2022-11-28T09:21:05.413Z,100989.75
2022-11-28T09:23:31.943Z,100991.19
2022-11-28T09:25:58.449Z,101003.13
2022-11-28T09:28:28.607Z,100998.91
2022-11-28T09:31:03.346Z,101011.69
2022-11-28T09:33:30.465Z,101001.63
2022-11-28T09:35:58.215Z,100999.06
2022-11-28T09:38:25.632Z,101005.78
2022-11-28T09:40:52.610Z,100991.28
2022-11-28T09:43:31.190Z,100998.22
2022-11-28T09:46:01.938Z,101008.50
2022-11-28T09:49:03.066Z,101010.34
2022-11-28T09:51:44.224Z,101007.03
2022-11-28T09:54:35.164Z,101008.69
2022-11-28T09:57:08.650Z,101020.34
2022-11-28T09:59:36.178Z,101015.38
2022-11-28T10:02:21.235Z,101013.69
2022-11-28T10:05:04.804Z,101009.47
2022-11-28T10:08:05.811Z,101013.25
2022-11-28T10:10:50.294Z,101015.75
2022-11-28T10:14:07.227Z,101012.34
2022-11-28T10:16:47.629Z,101011.75
2022-11-28T10:19:52.250Z,101005.69
2022-11-28T10:22:11.532Z,101011.34
2022-11-28T10:24:43.535Z,101010.06
2022-11-28T10:27:14.265Z,101014.47
2022-11-28T10:29:50.158Z,101007.06
2022-11-28T10:32:19.898Z,101010.63
2022-11-28T10:35:30.562Z,101009.97
2022-11-28T10:37:57.127Z,101006.78
2022-11-28T10:40:23.588Z,101004.13
2022-11-28T10:43:00.777Z,101013.47
2022-11-28T10:45:57.128Z,101016.84
2022-11-28T10:48:45.586Z,101011.97
2022-11-28T10:51:17.861Z,101024.94
2022-11-28T10:53:57.130Z,101010.91
2022-11-28T10:56:51.175Z,101015.50
2022-11-28T10:59:31.993Z,101023.03
2022-11-28T11:02:00.655Z,101015.00
2022-11-28T11:04:28.106Z,101020.44
2022-11-28T11:07:29.076Z,101017.13
2022-11-28T11:10:16.404Z,101026.13
2022-11-28T11:12:44.131Z,101021.13
2022-11-28T11:15:21.966Z,101025.03
2022-11-28T11:17:50.709Z,101011.50
2022-11-28T11:20:27.902Z,101015.44
2022-11-28T11:23:00.382Z,101019.84
2022-11-28T11:25:32.575Z,101004.66
2022-11-28T11:28:02.425Z,101014.56
2022-11-28T11:30:33.477Z,101003.66
2022-11-28T11:33:03.522Z,101010.63
2022-11-28T11:35:35.834Z,101010.47
2022-11-28T11:38:20.538Z,101026.16
2022-11-28T11:40:51.091Z,101015.31
2022-11-28T11:43:28.685Z,101023.63
2022-11-28T11:46:09.054Z,101014.41
2022-11-28T11:48:47.196Z,101013.97
2022-11-28T11:51:36.468Z,101019.41
2022-11-28T11:54:14.644Z,101008.09
2022-11-28T11:56:46.022Z,101016.84
2022-11-28T11:59:36.302Z,101019.78
2022-11-28T12:02:15.168Z,101026.53
2022-11-28T12:04:49.958Z,101030.69
2022-11-28T12:07:31.853Z,101022.75
2022-11-28T12:10:04.162Z,101020.19
2022-11-28T12:12:36.047Z,101023.09
2022-11-28T12:15:02.792Z,101018.28
2022-11-28T12:18:03.699Z,101020.19
2022-11-28T12:20:57.633Z,101022.06
2022-11-28T12:23:26.988Z,101026.06
2022-11-28T12:26:09.029Z,101026.06
2022-11-28T12:28:54.065Z,101027.47
2022-11-28T12:31:55.653Z,101026.84
2022-11-28T12:34:43.862Z,101028.97
2022-11-28T12:37:33.020Z,101032.09
2022-11-28T12:40:35.555Z,101029.38
2022-11-28T12:43:16.852Z,101028.06
2022-11-28T12:45:55.607Z,101031.88
2022-11-28T12:48:24.730Z,101023.47
2022-11-28T12:51:12.551Z,101023.72
2022-11-28T12:54:05.088Z,101026.81
2022-11-28T12:56:56.660Z,101021.09
2022-11-28T12:59:55.261Z,101027.66
2022-11-28T13:02:32.285Z,101022.63
2022-11-28T13:05:14.663Z,101021.56
2022-11-28T13:08:05.668Z,101022.19
2022-11-28T13:10:45.311Z,101017.63
2022-11-28T13:13:23.773Z,101021.09
2022-11-28T13:16:15.879Z,101025.69
2022-11-28T13:18:42.261Z,101029.63
2022-11-28T13:21:29.736Z,101028.31
2022-11-28T13:24:06.610Z,101018.09
2022-11-28T13:26:33.652Z,101025.50
2022-11-28T13:29:23.648Z,101029.91
2022-11-28T13:32:02.304Z,101038.84
2022-11-28T13:34:30.088Z,101039.28
2022-11-28T13:40:13.080Z,101043.81
2022-11-28T13:43:04.459Z,101048.06
2022-11-28T13:45:42.328Z,101047.00
2022-11-28T13:48:57.631Z,101047.63
2022-11-28T13:51:30.589Z,101052.47
2022-11-28T13:54:20.154Z,101058.09
2022-11-28T13:57:08.044Z,101051.41
2022-11-28T13:59:35.245Z,101044.91
2022-11-28T14:02:04.774Z,101046.81
2022-11-28T14:04:32.785Z,101047.63
2022-11-28T14:07:07.027Z,101054.50
2022-11-28T14:09:52.755Z,101052.25
2022-11-28T14:12:44.170Z,101052.63
2022-11-28T14:15:32.701Z,101051.50
2022-11-28T14:18:31.542Z,101041.72
2022-11-28T14:21:05.345Z,101054.69
2022-11-28T14:23:47.782Z,101059.28
2022-11-28T14:26:38.445Z,101056.31
2022-11-28T14:29:18.554Z,101058.47
2022-11-28T14:32:00.638Z,101059.13
2022-11-28T14:34:44.413Z,101064.13
2022-11-28T14:37:31.347Z,101067.69
2022-11-28T14:39:58.230Z,101072.53
2022-11-28T14:42:58.805Z,101067.09
2022-11-28T14:45:30.099Z,101076.69
2022-11-28T14:48:14.341Z,101072.31
2022-11-28T14:50:42.244Z,101078.78
2022-11-28T14:53:34.615Z,101081.69
2022-11-28T14:56:24.174Z,101082.91
2022-11-28T14:58:55.943Z,101074.44
2022-11-28T15:01:48.545Z,101083.81
2022-11-28T15:04:52.559Z,101087.75
2022-11-28T15:21:12.090Z,101089.88
2022-11-28T15:23:38.652Z,101088.81
2022-11-28T15:26:06.840Z,101081.69
2022-11-28T15:28:35.536Z,101086.56
2022-11-28T15:31:05.585Z,101094.47
2022-11-28T15:33:32.698Z,101097.66
2022-11-28T15:36:10.891Z,101096.63
2022-11-28T15:38:41.262Z,101110.00
2022-11-28T15:41:07.947Z,101110.00
2022-11-28T15:43:37.466Z,101114.63
2022-11-28T15:46:05.583Z,101111.06
2022-11-28T15:48:40.190Z,101119.25
2022-11-28T15:51:08.041Z,101112.50
2022-11-28T15:53:40.670Z,101122.56
2022-11-28T15:56:15.586Z,101123.41
2022-11-28T15:58:44.122Z,101127.19
2022-11-28T16:01:18.633Z,101124.09
2022-11-28T16:04:00.868Z,101130.09
2022-11-28T16:06:34.119Z,101118.81
2022-11-28T16:09:06.332Z,101120.91
2022-11-28T16:11:35.313Z,101131.38
2022-11-28T16:14:09.064Z,101125.69
2022-11-28T16:16:38.115Z,101125.31
2022-11-28T16:19:08.142Z,101135.16
2022-11-28T16:21:55.162Z,101133.66
2022-11-28T16:24:36.898Z,101144.56
2022-11-28T16:27:06.303Z,101141.81
2022-11-28T16:29:35.702Z,101143.91
2022-11-28T16:32:34.513Z,101152.28
2022-11-28T16:35:03.271Z,101155.44
2022-11-28T16:37:31.668Z,101160.91
2022-11-28T16:40:13.025Z,101169.09
2022-11-28T16:42:40.229Z,101158.84
2022-11-28T16:45:15.806Z,101169.09
2022-11-28T16:47:43.319Z,101176.44
2022-11-28T16:50:14.197Z,101177.84
2022-11-28T16:52:46.761Z,101180.81
2022-11-28T16:55:28.462Z,101184.78
2022-11-28T16:58:08.691Z,101181.41
2022-11-28T17:00:36.716Z,101182.72
2022-11-28T17:03:08.059Z,101190.50
2022-11-28T17:05:36.833Z,101191.50
2022-11-28T17:08:03.721Z,101192.56
2022-11-28T17:10:30.232Z,101187.13
2022-11-28T17:12:56.815Z,101195.28
2022-11-28T17:15:23.593Z,101196.34
2022-11-28T17:17:50.133Z,101209.97
2022-11-28T17:20:17.762Z,101203.47
2022-11-28T17:22:47.618Z,101204.97
2022-11-28T17:25:19.725Z,101219.00
2022-11-28T17:27:48.112Z,101219.00
2022-11-28T17:30:16.390Z,101213.16
2022-11-28T17:32:43.565Z,101206.22
2022-11-28T17:35:18.562Z,101225.69
2022-11-28T17:37:45.025Z,101207.91
2022-11-28T17:40:30.341Z,101216.47
2022-11-28T17:42:56.892Z,101216.72
2022-11-28T17:45:24.563Z,101216.47
2022-11-28T17:47:51.273Z,101221.94
2022-11-28T17:50:17.774Z,101221.09
2022-11-28T17:52:44.279Z,101226.53
2022-11-28T17:55:11.091Z,101223.81
2022-11-28T17:57:37.676Z,101230.34
2022-11-28T18:00:06.553Z,101232.00
2022-11-28T18:02:40.810Z,101232.00
2022-11-28T18:05:09.187Z,101230.56
2022-11-28T18:07:35.809Z,101241.25
2022-11-28T18:10:02.483Z,101227.84
2022-11-28T18:12:29.085Z,101231.22
2022-11-28T18:14:55.650Z,101243.34
2022-11-28T18:17:22.140Z,101241.66
2022-11-28T18:19:52.059Z,101240.84
2022-11-28T18:22:21.005Z,101242.75
2022-11-28T18:24:47.755Z,101245.69
2022-11-28T18:27:14.309Z,101247.38
2022-11-28T18:29:41.188Z,101243.81
2022-11-28T18:32:08.000Z,101235.84
2022-11-28T18:34:34.517Z,101239.00
2022-11-28T18:37:01.114Z,101239.00
2022-11-28T18:39:31.247Z,101242.19
2022-11-28T18:41:59.917Z,101250.97
2022-11-28T18:44:27.908Z,101252.03
2022-11-28T18:46:54.431Z,101254.75
2022-11-28T18:49:20.920Z,101252.03
2022-11-28T18:51:48.453Z,101256.84
2022-11-28T18:54:20.525Z,101258.16
2022-11-28T18:56:48.030Z,101249.72
2022-11-28T18:59:14.934Z,101269.88
2022-11-28T19:01:41.548Z,101270.09
2022-11-28T19:04:11.416Z,101269.06
2022-11-28T19:06:40.136Z,101271.97
2022-11-28T19:09:10.643Z,101275.75
2022-11-28T19:11:37.170Z,101270.31
2022-11-28T19:14:04.048Z,101264.00
2022-11-28T19:16:33.027Z,101269.47
2022-11-28T19:19:01.714Z,101265.31
2022-11-28T19:21:31.590Z,101272.88
2022-11-28T19:23:59.283Z,101269.53
2022-11-28T19:26:28.926Z,101271.84
2022-11-28T19:28:56.236Z,101276.47
2022-11-28T19:31:26.901Z,101281.72
2022-11-28T19:34:02.203Z,101277.09
2022-11-28T19:36:37.188Z,101284.63
2022-11-28T19:39:04.481Z,101280.88
2022-11-28T19:41:32.259Z,101284.22
2022-11-28T19:43:59.322Z,101277.94
2022-11-28T19:46:35.053Z,101292.00
2022-11-28T19:49:07.948Z,101285.50
2022-11-28T19:51:34.986Z,101290.50
2022-11-28T19:54:03.904Z,101290.94
2022-11-28T19:56:32.240Z,101288.66
2022-11-28T19:58:59.322Z,101289.47
2022-11-28T20:01:26.009Z,101299.81
2022-11-28T20:03:53.768Z,101304.19
2022-11-28T20:06:24.032Z,101301.47
2022-11-28T20:08:52.375Z,101297.75
2022-11-28T20:11:26.639Z,101293.13
2022-11-28T20:14:00.893Z,101301.91
2022-11-28T20:16:30.962Z,101295.88
2022-11-28T20:19:00.448Z,101303.84
2022-11-28T20:21:28.588Z,101308.25
2022-11-28T20:23:59.401Z,101314.94
2022-11-28T20:26:26.872Z,101313.69
2022-11-28T20:28:56.019Z,101314.34
2022-11-28T20:31:27.512Z,101321.47
2022-11-28T20:33:54.835Z,101319.97
2022-11-28T20:36:24.412Z,101324.81
2022-11-28T20:38:53.284Z,101323.16
2022-11-28T20:41:21.269Z,101320.66
2022-11-28T20:43:48.421Z,101322.53
2022-11-28T20:46:18.274Z,101316.69
2022-11-28T20:48:45.295Z,101313.53
2022-11-28T20:51:16.593Z,101327.78
2022-11-28T20:53:43.389Z,101320.91
2022-11-28T20:56:13.410Z,101330.94
2022-11-28T20:58:40.246Z,101319.22
2022-11-28T21:01:07.255Z,101322.16
2022-11-28T21:03:34.429Z,101324.25
2022-11-28T21:06:01.586Z,101325.09
2022-11-28T21:08:31.322Z,101332.22
2022-11-28T21:10:57.906Z,101333.91
2022-11-28T21:13:24.517Z,101337.28
2022-11-28T21:15:53.342Z,101340.19
2022-11-28T21:18:19.846Z,101336.03
2022-11-28T21:20:46.663Z,101332.69
2022-11-28T21:23:15.934Z,101342.31
2022-11-28T21:25:44.157Z,101335.41
2022-11-28T21:28:11.701Z,101336.66
2022-11-28T21:30:45.092Z,101361.97
2022-11-28T21:33:12.515Z,101354.88
2022-11-28T21:35:39.829Z,101353.22
2022-11-28T21:38:07.139Z,101361.38
2022-11-28T21:40:33.770Z,101364.09
2022-11-28T21:43:00.319Z,101356.34
2022-11-28T21:45:27.576Z,101360.72
2022-11-28T21:47:54.691Z,101363.28
2022-11-28T21:50:22.221Z,101354.47
2022-11-28T21:52:48.698Z,101359.06
2022-11-28T21:55:15.393Z,101367.06
2022-11-28T21:57:42.216Z,101364.09
2022-11-28T22:00:20.752Z,101362.22
2022-11-28T22:03:02.926Z,101358.91
2022-11-28T22:05:43.711Z,101352.84
2022-11-28T22:08:10.770Z,101364.78
2022-11-28T22:10:37.694Z,101367.47
2022-11-28T22:13:04.289Z,101365.41
2022-11-28T22:15:30.885Z,101375.44
2022-11-28T22:17:57.379Z,101368.72
2022-11-28T22:20:23.923Z,101369.59
2022-11-28T22:22:50.394Z,101374.19
2022-11-28T22:25:17.294Z,101379.63
2022-11-28T22:27:43.860Z,101387.56
2022-11-28T22:30:10.821Z,101378.81
2022-11-28T22:32:37.353Z,101384.44
2022-11-28T22:35:04.315Z,101386.53
2022-11-28T22:37:31.655Z,101387.38
2022-11-28T22:39:58.164Z,101375.88
2022-11-28T22:42:25.163Z,101385.09
2022-11-28T22:44:52.003Z,101381.31
2022-11-28T22:47:18.609Z,101380.06
2022-11-28T22:49:45.421Z,101391.34
2022-11-28T22:52:12.814Z,101379.88
2022-11-28T22:54:39.548Z,101390.94
2022-11-28T22:57:06.274Z,101395.34
2022-11-28T22:59:35.147Z,101394.06
2022-11-28T23:02:02.703Z,101393.25
2022-11-28T23:04:29.303Z,101393.25
2022-11-28T23:06:55.860Z,101384.47
2022-11-28T23:09:22.363Z,101392.84
2022-11-28T23:11:49.856Z,101390.13
2022-11-28T23:14:17.365Z,101404.31
2022-11-28T23:16:44.352Z,101406.00
2022-11-28T23:19:16.372Z,101411.44
2022-11-28T23:21:45.274Z,101405.81
2022-11-28T23:24:18.579Z,101406.84
2022-11-28T23:26:46.700Z,101416.69
2022-11-28T23:29:14.421Z,101412.06
2022-11-28T23:31:42.328Z,101410.59
2022-11-28T23:34:10.058Z,101416.06
2022-11-28T23:36:42.633Z,101422.34
2022-11-28T23:39:13.313Z,101419.00
2022-11-28T23:41:40.230Z,101410.38
2022-11-28T23:44:06.809Z,101412.91
2022-11-28T23:46:34.443Z,101415.63
2022-11-28T23:49:00.931Z,101412.31
2022-11-28T23:51:27.469Z,101423.59
2022-11-28T23:53:54.224Z,101424.66
2022-11-28T23:56:24.115Z,101427.38
2022-11-28T23:58:51.415Z,101424.22
